createdAt,value
2022-08-23T00:00:44.275Z,13.1
2022-08-23T00:01:58.547Z,13.1
2022-08-23T00:03:12.961Z,13
2022-08-23T00:04:27.297Z,13
2022-08-23T00:05:41.605Z,12.9
2022-08-23T00:06:55.927Z,12.9
2022-08-23T00:08:10.208Z,12.9
2022-08-23T00:09:24.617Z,12.9
2022-08-23T00:10:38.936Z,12.9
2022-08-23T00:11:53.261Z,12.8
2022-08-23T00:13:07.578Z,12.8
2022-08-23T00:14:21.860Z,12.8
2022-08-23T00:15:36.260Z,12.7
2022-08-23T00:16:50.592Z,12.7
2022-08-23T00:18:04.904Z,12.7
2022-08-23T00:19:19.294Z,12.7
2022-08-23T00:20:32.673Z,12.6
2022-08-23T00:21:47.008Z,12.5
2022-08-23T00:23:00.374Z,12.5
2022-08-23T00:24:14.657Z,12.5
2022-08-23T00:25:29.076Z,12.5
2022-08-23T00:26:43.389Z,12.5
2022-08-23T00:27:57.691Z,12.5
2022-08-23T00:29:12.012Z,12.5
2022-08-23T00:30:26.302Z,12.5
2022-08-23T00:31:40.717Z,12.5
2022-08-23T00:32:55.040Z,12.5
2022-08-23T00:34:09.344Z,12.4
2022-08-23T00:35:23.666Z,12.4
2022-08-23T00:36:37.953Z,12.2
2022-08-23T00:37:52.373Z,12.1
2022-08-23T00:39:06.677Z,12.1
2022-08-23T00:40:21.000Z,12.1
2022-08-23T00:41:35.328Z,12
2022-08-23T00:42:49.608Z,12
2022-08-23T00:44:04.009Z,12
2022-08-23T00:45:18.331Z,12
2022-08-23T00:46:32.657Z,12
2022-08-23T00:47:46.975Z,12.1
2022-08-23T00:49:01.254Z,12
2022-08-23T00:50:15.672Z,12.1
2022-08-23T00:51:29.994Z,12.1
2022-08-23T00:52:44.298Z,12.2
2022-08-23T00:53:58.692Z,12.2
2022-08-23T00:55:12.039Z,12.2
2022-08-23T00:56:26.354Z,12.1
2022-08-23T00:57:40.662Z,12.1
2022-08-23T00:58:54.984Z,12
2022-08-23T01:00:09.273Z,11.9
2022-08-23T01:01:23.689Z,11.8
2022-08-23T01:02:37.996Z,11.7
2022-08-23T01:03:52.318Z,11.6
2022-08-23T01:05:06.646Z,11.5
2022-08-23T01:06:20.923Z,11.5
2022-08-23T01:07:35.330Z,11.6
2022-08-23T01:08:49.660Z,11.6
2022-08-23T01:10:03.971Z,11.6
2022-08-23T01:11:18.293Z,11.6
2022-08-23T01:12:32.585Z,11.6
2022-08-23T01:13:46.997Z,11.6
2022-08-23T01:15:01.299Z,11.6
2022-08-23T01:16:15.618Z,11.6
2022-08-23T01:17:29.943Z,11.6
2022-08-23T01:18:44.219Z,11.5
2022-08-23T01:19:58.634Z,11.4
2022-08-23T01:21:12.965Z,11.4
2022-08-23T01:22:27.284Z,11.2
2022-08-23T01:23:41.589Z,11.1
2022-08-23T01:24:55.889Z,11.1
2022-08-23T01:26:10.351Z,11.1
2022-08-23T01:27:24.694Z,11.2
2022-08-23T01:28:38.040Z,11.2
2022-08-23T01:29:52.331Z,11.2
2022-08-23T01:31:06.730Z,11.2
2022-08-23T01:32:21.054Z,11.3
2022-08-23T01:33:35.378Z,11.4
2022-08-23T01:34:49.700Z,11.4
2022-08-23T01:36:03.985Z,11.4
2022-08-23T01:37:18.383Z,11.4
2022-08-23T01:38:32.705Z,11.3
2022-08-23T01:39:47.027Z,11.3
2022-08-23T01:41:01.347Z,11.2
2022-08-23T01:42:15.636Z,11.1
2022-08-23T01:43:30.041Z,11
2022-08-23T01:44:44.362Z,10.9
2022-08-23T01:45:58.665Z,10.9
2022-08-23T01:47:13.006Z,10.9
2022-08-23T01:48:27.276Z,10.8
2022-08-23T01:49:41.693Z,10.8
2022-08-23T01:50:56.008Z,10.9
2022-08-23T01:52:10.339Z,10.9
2022-08-23T01:53:24.638Z,11
2022-08-23T01:54:38.942Z,11
2022-08-23T01:55:53.339Z,11
2022-08-23T01:57:07.658Z,10.9
2022-08-23T01:58:21.971Z,10.9
2022-08-23T01:59:36.365Z,11
2022-08-23T02:00:49.773Z,11
2022-08-23T02:02:04.119Z,11
2022-08-23T02:03:17.472Z,11
2022-08-23T02:04:31.746Z,11
2022-08-23T02:05:46.165Z,11
2022-08-23T02:07:00.476Z,10.9
2022-08-23T02:08:14.789Z,10.9
2022-08-23T02:09:29.112Z,10.9
2022-08-23T02:10:43.408Z,10.9
2022-08-23T02:11:57.818Z,10.9
2022-08-23T02:13:12.126Z,10.9
2022-08-23T02:14:26.441Z,10.9
2022-08-23T02:15:40.759Z,10.9
2022-08-23T02:16:55.047Z,10.9
2022-08-23T02:18:09.459Z,10.9
2022-08-23T02:19:23.781Z,10.9
2022-08-23T02:20:38.104Z,10.8
2022-08-23T02:21:52.407Z,10.7
2022-08-23T02:23:06.706Z,10.7
2022-08-23T02:24:21.115Z,10.7
2022-08-23T02:25:35.431Z,10.7
2022-08-23T02:26:49.754Z,10.7
2022-08-23T02:28:04.069Z,10.6
2022-08-23T02:29:18.344Z,10.6
2022-08-23T02:30:32.759Z,10.6
2022-08-23T02:31:47.078Z,10.6
2022-08-23T02:33:01.398Z,10.7
2022-08-23T02:34:15.770Z,10.7
2022-08-23T02:35:29.161Z,10.7
2022-08-23T02:36:43.516Z,10.7
2022-08-23T02:37:56.866Z,10.7
2022-08-23T02:39:11.145Z,10.6
2022-08-23T02:40:25.567Z,10.5
2022-08-23T02:41:39.886Z,10.5
2022-08-23T02:42:54.196Z,10.6
2022-08-23T02:44:08.518Z,10.6
2022-08-23T02:45:22.787Z,10.5
2022-08-23T02:46:37.213Z,10.4
2022-08-23T02:47:51.524Z,10.3
2022-08-23T02:49:05.836Z,10.2
2022-08-23T02:50:20.166Z,10.1
2022-08-23T02:51:34.454Z,10.2
2022-08-23T02:52:48.852Z,10.2
2022-08-23T02:54:03.173Z,10.3
2022-08-23T02:55:17.484Z,10.4
2022-08-23T02:56:31.807Z,10.4
2022-08-23T02:57:46.089Z,10.4
2022-08-23T02:59:00.508Z,10.4
2022-08-23T03:00:14.821Z,10.4
2022-08-23T03:01:29.144Z,10.4
2022-08-23T03:02:43.472Z,10.4
2022-08-23T03:03:57.748Z,10.4
2022-08-23T03:05:12.164Z,10.4
2022-08-23T03:06:26.471Z,10.5
2022-08-23T03:07:40.787Z,10.5
2022-08-23T03:08:55.183Z,10.4
2022-08-23T03:10:08.521Z,10.4
2022-08-23T03:11:22.853Z,10.3
2022-08-23T03:12:37.168Z,10.3
2022-08-23T03:13:51.494Z,10.3
2022-08-23T03:15:05.761Z,10.3
2022-08-23T03:16:20.184Z,10.3
2022-08-23T03:17:34.490Z,10.4
2022-08-23T03:18:48.824Z,10.4
2022-08-23T03:20:03.133Z,10.3
2022-08-23T03:21:17.431Z,10.2
2022-08-23T03:22:31.833Z,10.2
2022-08-23T03:23:46.163Z,10.2
2022-08-23T03:25:00.478Z,10.3
2022-08-23T03:26:14.709Z,10.3
2022-08-23T03:27:28.937Z,10.4
2022-08-23T03:28:43.228Z,10.4
2022-08-23T03:29:57.492Z,10.4
2022-08-23T03:31:11.712Z,10.5
2022-08-23T03:32:25.940Z,10.5
2022-08-23T03:33:40.164Z,10.4
2022-08-23T03:34:54.477Z,10.3
2022-08-23T03:36:08.713Z,10.1
2022-08-23T03:37:22.950Z,10.1
2022-08-23T03:38:37.174Z,10.1
2022-08-23T03:39:51.410Z,10.2
2022-08-23T03:41:05.787Z,10.3
2022-08-23T03:42:20.056Z,10.3
2022-08-23T03:43:33.364Z,10.3
2022-08-23T03:44:47.592Z,10.4
2022-08-23T03:46:01.898Z,10.3
2022-08-23T03:47:16.147Z,10.2
2022-08-23T03:48:30.381Z,10.2
2022-08-23T03:49:44.598Z,10.1
2022-08-23T03:50:58.832Z,10
2022-08-23T03:52:13.145Z,10
2022-08-23T03:53:27.395Z,9.9
2022-08-23T03:54:41.615Z,9.9
2022-08-23T03:55:55.838Z,9.9
2022-08-23T03:57:10.082Z,10
2022-08-23T03:58:24.376Z,10.2
2022-08-23T03:59:38.632Z,10.3
2022-08-23T04:00:52.847Z,10.2
2022-08-23T04:02:07.088Z,10.2
2022-08-23T04:03:21.316Z,10.2
2022-08-23T04:04:35.627Z,10.1
2022-08-23T04:05:49.856Z,10
2022-08-23T04:07:04.093Z,10
2022-08-23T04:08:18.337Z,10.1
2022-08-23T04:09:32.558Z,10.1
2022-08-23T04:10:46.852Z,10.1
2022-08-23T04:12:01.105Z,10
2022-08-23T04:13:15.346Z,9.9
2022-08-23T04:14:29.635Z,9.8
2022-08-23T04:15:42.983Z,9.8
2022-08-23T04:16:57.261Z,9.9
2022-08-23T04:18:10.557Z,9.9
2022-08-23T04:19:24.795Z,9.8
2022-08-23T04:20:39.095Z,9.9
2022-08-23T04:21:53.333Z,9.9
2022-08-23T04:23:07.577Z,9.9
2022-08-23T04:24:21.797Z,10
2022-08-23T04:25:36.038Z,9.9
2022-08-23T04:26:50.324Z,10
2022-08-23T04:28:04.571Z,10.1
2022-08-23T04:29:18.813Z,10.2
2022-08-23T04:30:33.046Z,10.2
2022-08-23T04:31:47.266Z,10.3
2022-08-23T04:33:01.582Z,10.3
2022-08-23T04:34:15.818Z,10.3
2022-08-23T04:35:30.043Z,10.3
2022-08-23T04:36:44.278Z,10.3
2022-08-23T04:37:58.515Z,10.3
2022-08-23T04:39:12.820Z,10.2
2022-08-23T04:40:27.062Z,10.2
2022-08-23T04:41:41.293Z,10.2
2022-08-23T04:42:55.522Z,10.1
2022-08-23T04:44:09.754Z,10.1
2022-08-23T04:45:24.047Z,10.1
2022-08-23T04:46:38.300Z,10
2022-08-23T04:47:52.541Z,10.1
2022-08-23T04:49:06.833Z,10.1
2022-08-23T04:50:20.161Z,10.1
2022-08-23T04:51:34.458Z,10.2
2022-08-23T04:52:47.745Z,10.3
2022-08-23T04:54:01.975Z,10.3
2022-08-23T04:55:16.290Z,10.3
2022-08-23T04:56:30.519Z,10.3
2022-08-23T04:57:44.754Z,10.3
2022-08-23T04:58:58.983Z,10.3
2022-08-23T05:00:13.211Z,10.3
2022-08-23T05:01:27.515Z,10.3
2022-08-23T05:02:41.761Z,10.3
2022-08-23T05:03:55.988Z,10.3
2022-08-23T05:05:10.220Z,10.4
2022-08-23T05:06:24.455Z,10.5
2022-08-23T05:07:38.752Z,10.6
2022-08-23T05:08:53.001Z,10.6
2022-08-23T05:10:07.246Z,10.6
2022-08-23T05:11:21.461Z,10.6
2022-08-23T05:12:35.702Z,10.6
2022-08-23T05:13:50.003Z,10.7
2022-08-23T05:15:04.244Z,10.7
2022-08-23T05:16:18.474Z,10.7
2022-08-23T05:17:32.707Z,10.7
2022-08-23T05:18:46.932Z,10.7
2022-08-23T05:20:01.246Z,10.6
2022-08-23T05:21:15.487Z,10.6
2022-08-23T05:22:29.725Z,10.6
2022-08-23T05:23:44.006Z,10.7
2022-08-23T05:24:57.294Z,10.8
2022-08-23T05:26:11.555Z,10.8
2022-08-23T05:27:25.782Z,10.8
2022-08-23T05:28:40.005Z,10.9
2022-08-23T05:29:54.239Z,11
2022-08-23T05:31:08.554Z,11
2022-08-23T05:32:22.792Z,11
2022-08-23T05:33:37.030Z,11.2
2022-08-23T05:34:51.255Z,11.4
2022-08-23T05:36:05.477Z,11.5
2022-08-23T05:37:19.783Z,11.6
2022-08-23T05:38:34.028Z,11.7
2022-08-23T05:39:48.252Z,11.9
2022-08-23T05:41:02.499Z,12.1
2022-08-23T05:42:16.723Z,12.2
2022-08-23T05:43:31.021Z,12.4
2022-08-23T05:44:45.266Z,12.4
2022-08-23T05:45:59.494Z,12.5
2022-08-23T05:47:13.725Z,12.5
2022-08-23T05:48:27.954Z,12.7
2022-08-23T05:49:42.260Z,12.8
2022-08-23T05:50:56.522Z,12.9
2022-08-23T05:52:10.742Z,13
2022-08-23T05:53:24.978Z,13.1
2022-08-23T05:54:39.213Z,13.1
2022-08-23T05:55:53.571Z,13.1
2022-08-23T05:57:07.860Z,13.2
2022-08-23T05:58:21.159Z,13.3
2022-08-23T05:59:35.375Z,13.4
2022-08-23T06:00:49.685Z,13.5
2022-08-23T06:02:03.929Z,13.6
2022-08-23T06:03:18.159Z,13.8
2022-08-23T06:04:32.391Z,14.2
2022-08-23T06:05:46.629Z,14.7
2022-08-23T06:07:00.919Z,15
2022-08-23T06:08:15.171Z,15.2
2022-08-23T06:09:29.404Z,15.8
2022-08-23T06:10:43.634Z,16.3
2022-08-23T06:11:57.863Z,16.6
2022-08-23T06:13:12.163Z,16.9
2022-08-23T06:14:26.407Z,17.3
2022-08-23T06:15:40.648Z,17.4
2022-08-23T06:16:54.875Z,17.6
2022-08-23T06:18:09.097Z,17.8
2022-08-23T06:19:23.410Z,18.1
2022-08-23T06:20:37.645Z,18.4
2022-08-23T06:21:51.882Z,18.7
2022-08-23T06:23:06.124Z,18.7
2022-08-23T06:24:20.352Z,18.7
2022-08-23T06:25:34.645Z,18.8
2022-08-23T06:26:48.894Z,19.2
2022-08-23T06:28:03.127Z,19.5
2022-08-23T06:29:17.414Z,19.8
2022-08-23T06:30:30.759Z,20.3
2022-08-23T06:31:45.030Z,20.6
2022-08-23T06:32:58.329Z,20.2
2022-08-23T06:34:12.560Z,20.5
2022-08-23T06:35:26.875Z,20.9
2022-08-23T06:36:41.118Z,21
2022-08-23T06:37:55.353Z,21
2022-08-23T06:39:09.569Z,21.1
2022-08-23T06:40:23.796Z,21.2
2022-08-23T06:41:38.107Z,21.5
2022-08-23T06:42:52.363Z,21.9
2022-08-23T06:44:06.586Z,22.1
2022-08-23T06:45:20.814Z,22.5
2022-08-23T06:46:35.046Z,22.8
2022-08-23T06:47:49.343Z,22.9
2022-08-23T06:49:03.584Z,22.9
2022-08-23T06:50:17.825Z,22.5
2022-08-23T06:51:32.056Z,22.6
2022-08-23T06:52:46.295Z,22.7
2022-08-23T06:54:00.594Z,22.1
2022-08-23T06:55:14.843Z,21.9
2022-08-23T06:56:29.072Z,22.3
2022-08-23T06:57:43.286Z,22.6
2022-08-23T06:58:57.526Z,22.7
2022-08-23T07:00:11.824Z,22.4
2022-08-23T07:01:26.083Z,22.8
2022-08-23T07:02:40.303Z,23.4
2022-08-23T07:03:54.596Z,23.4
2022-08-23T07:05:07.940Z,23.4
2022-08-23T07:06:22.227Z,23.6
2022-08-23T07:07:35.526Z,23.2
2022-08-23T07:08:49.744Z,22.4
2022-08-23T07:10:04.052Z,23
2022-08-23T07:11:18.286Z,22.8
2022-08-23T07:12:32.535Z,22.4
2022-08-23T07:13:46.761Z,22.7
2022-08-23T07:15:00.995Z,22.3
2022-08-23T07:16:15.296Z,22.3
2022-08-23T07:17:29.532Z,23.2
2022-08-23T07:18:43.766Z,23.2
2022-08-23T07:19:57.998Z,23
2022-08-23T07:21:12.231Z,23.2
2022-08-23T07:22:26.540Z,23.7
2022-08-23T07:23:40.781Z,23.1
2022-08-23T07:24:55.001Z,23.3
2022-08-23T07:26:09.228Z,23.1
2022-08-23T07:27:23.464Z,23.9
2022-08-23T07:31:06.251Z,24.8
2022-08-23T07:32:20.470Z,24.9
2022-08-23T07:33:34.708Z,25.1
2022-08-23T07:34:49.021Z,24.3
2022-08-23T07:36:03.259Z,24.7
2022-08-23T07:37:17.489Z,25.1
2022-08-23T07:38:31.775Z,24.9
2022-08-23T07:39:45.083Z,24.4
2022-08-23T07:40:59.324Z,24.7
2022-08-23T07:42:13.552Z,25.2
2022-08-23T07:43:27.789Z,25.6
2022-08-23T07:44:42.023Z,26.1
2022-08-23T07:45:56.319Z,26.3
2022-08-23T07:47:10.563Z,26.7
2022-08-23T07:48:24.780Z,27.2
2022-08-23T07:49:39.021Z,27.4
2022-08-23T07:50:53.245Z,27
2022-08-23T07:52:07.556Z,26.5
2022-08-23T07:53:21.801Z,26.7
2022-08-23T07:54:36.040Z,26.6
2022-08-23T07:55:50.268Z,26.9
2022-08-23T07:57:04.484Z,26.6
2022-08-23T07:58:18.789Z,26.5
2022-08-23T07:59:33.046Z,26.5
2022-08-23T08:00:47.278Z,26.4
2022-08-23T08:02:01.498Z,26.3
2022-08-23T08:03:15.739Z,25.1
2022-08-23T08:04:30.043Z,24.2
2022-08-23T08:05:44.282Z,24.4
2022-08-23T08:06:58.503Z,24.5
2022-08-23T08:08:12.745Z,25.5
2022-08-23T08:09:26.978Z,26.6
2022-08-23T08:10:41.328Z,27.3
2022-08-23T08:11:55.612Z,26.9
2022-08-23T08:13:08.953Z,26.5
2022-08-23T08:14:22.254Z,26.6
2022-08-23T08:16:50.732Z,27.9
2022-08-23T08:18:04.955Z,28.7
2022-08-23T08:19:19.182Z,28.7
2022-08-23T08:20:33.500Z,27.6
2022-08-23T08:21:47.741Z,27.8
2022-08-23T08:23:01.976Z,27.6
2022-08-23T08:24:16.213Z,27.3
2022-08-23T08:25:30.441Z,26.7
2022-08-23T08:26:44.729Z,27.5
2022-08-23T08:27:58.970Z,27.9
2022-08-23T08:29:13.202Z,27.4
2022-08-23T08:30:27.439Z,27.4
2022-08-23T08:31:41.665Z,27.7
2022-08-23T08:32:55.977Z,27.3
2022-08-23T08:34:10.222Z,27.2
2022-08-23T08:35:24.448Z,27.3
2022-08-23T08:36:38.686Z,27.3
2022-08-23T08:37:52.909Z,26.9
2022-08-23T08:39:07.207Z,27.5
2022-08-23T08:40:21.461Z,26.8
2022-08-23T08:41:35.702Z,27.2
2022-08-23T08:42:49.916Z,27.5
2022-08-23T08:44:04.145Z,27.2
2022-08-23T08:45:18.518Z,27.6
2022-08-23T08:46:32.794Z,28.2
2022-08-23T08:47:46.118Z,29.1
2022-08-23T08:48:59.350Z,29.8
2022-08-23T08:50:13.605Z,29.3
2022-08-23T08:51:27.837Z,28.4
2022-08-23T08:52:42.070Z,28
2022-08-23T08:53:56.283Z,28.2
2022-08-23T08:55:10.602Z,28.7
2022-08-23T08:56:24.834Z,28.4
2022-08-23T08:57:39.078Z,28.4
2022-08-23T08:58:53.300Z,28.3
2022-08-23T09:00:07.541Z,28.3
2022-08-23T09:01:21.842Z,28.3
2022-08-23T09:02:36.086Z,28.2
2022-08-23T09:03:50.319Z,28.7
2022-08-23T09:05:04.544Z,29
2022-08-23T09:06:18.770Z,29.5
2022-08-23T09:07:33.081Z,29.2
2022-08-23T09:08:47.319Z,29.5
2022-08-23T09:10:01.553Z,29.6
2022-08-23T09:11:15.783Z,28.9
2022-08-23T09:12:30.016Z,29.1
2022-08-23T09:13:44.318Z,29.4
2022-08-23T09:14:58.553Z,29.3
2022-08-23T09:16:12.796Z,28.8
2022-08-23T09:17:27.016Z,28.9
2022-08-23T09:18:41.257Z,29.3
2022-08-23T09:19:55.565Z,29.5
2022-08-23T09:21:09.799Z,29.7
2022-08-23T09:22:24.032Z,30.1
2022-08-23T09:23:38.253Z,30
2022-08-23T09:24:52.492Z,29.6
2022-08-23T09:26:06.794Z,30
2022-08-23T09:27:21.000Z,30.3
2022-08-23T09:28:35.279Z,29.8
2022-08-23T09:29:49.502Z,28.2
2022-08-23T09:31:03.741Z,27.7
2022-08-23T09:32:18.041Z,27.8
2022-08-23T09:33:32.272Z,27.8
2022-08-23T09:34:46.565Z,28.2
2022-08-23T09:35:59.913Z,29
2022-08-23T09:37:14.204Z,29.2
2022-08-23T09:38:28.498Z,29.1
2022-08-23T09:39:41.803Z,29.2
2022-08-23T09:40:56.029Z,29.4
2022-08-23T09:42:10.323Z,29.9
2022-08-23T09:43:24.578Z,29.8
2022-08-23T09:44:38.799Z,29
2022-08-23T09:45:53.038Z,29.3
2022-08-23T09:47:07.270Z,29
2022-08-23T09:48:21.567Z,29.3
2022-08-23T09:49:35.804Z,29.6
2022-08-23T09:50:50.051Z,29.2
2022-08-23T09:52:04.272Z,28.4
2022-08-23T09:53:18.506Z,29
2022-08-23T09:54:32.799Z,28.8
2022-08-23T09:55:47.047Z,28.9
2022-08-23T09:57:01.297Z,29.5
2022-08-23T09:58:15.519Z,29.8
2022-08-23T09:59:29.746Z,30.4
2022-08-23T10:00:44.058Z,30.2
2022-08-23T10:01:58.295Z,30.3
2022-08-23T10:03:12.516Z,30.9
2022-08-23T10:04:26.760Z,31.3
2022-08-23T10:05:40.995Z,29.7
2022-08-23T10:06:55.287Z,27.6
2022-08-23T10:08:09.542Z,27
2022-08-23T10:09:23.766Z,26.7
2022-08-23T10:10:38.050Z,27.5
2022-08-23T10:11:51.353Z,27.9
2022-08-23T10:13:05.598Z,27.6
2022-08-23T10:14:19.839Z,28.5
2022-08-23T10:15:34.062Z,28.9
2022-08-23T10:16:48.289Z,29.8
2022-08-23T10:18:02.604Z,29.9
2022-08-23T10:19:16.853Z,30.5
2022-08-23T10:20:31.072Z,30.4
2022-08-23T10:21:45.304Z,30.8
2022-08-23T10:22:59.537Z,30.5
2022-08-23T10:24:13.848Z,29.8
2022-08-23T10:25:28.088Z,29
2022-08-23T10:26:42.308Z,27.9
2022-08-23T10:27:56.535Z,28.1
2022-08-23T10:29:10.787Z,28.4
2022-08-23T10:30:25.085Z,28.3
2022-08-23T10:31:39.337Z,28.5
2022-08-23T10:32:53.555Z,29.8
2022-08-23T10:34:07.789Z,29.7
2022-08-23T10:35:22.012Z,29.5
2022-08-23T10:36:36.320Z,29.6
2022-08-23T10:37:50.575Z,28.8
2022-08-23T10:39:04.794Z,28
2022-08-23T10:40:19.024Z,28.2
2022-08-23T10:41:33.249Z,27.6
2022-08-23T10:42:47.617Z,28.1
2022-08-23T10:44:01.900Z,28.5
2022-08-23T10:45:15.217Z,28.5
2022-08-23T10:46:29.433Z,28
2022-08-23T10:47:43.737Z,27.8
2022-08-23T10:48:57.999Z,27.8
2022-08-23T10:50:12.225Z,27.3
2022-08-23T10:51:26.460Z,27.4
2022-08-23T10:52:40.671Z,28.9
2022-08-23T10:53:54.995Z,29.4
2022-08-23T10:55:09.228Z,30.1
2022-08-23T10:56:23.470Z,30.3
2022-08-23T10:57:37.694Z,30.6
2022-08-23T10:58:51.917Z,31.3
2022-08-23T11:00:06.234Z,29.9
2022-08-23T11:01:20.472Z,30.1
2022-08-23T11:02:34.697Z,30.1
2022-08-23T11:03:48.936Z,30.5
2022-08-23T11:05:03.170Z,29.1
2022-08-23T11:06:17.456Z,28.7
2022-08-23T11:08:45.949Z,29
2022-08-23T11:10:00.176Z,29.4
2022-08-23T11:11:14.405Z,29.7
2022-08-23T11:12:28.704Z,29.7
2022-08-23T11:13:42.950Z,29.9
2022-08-23T11:14:57.182Z,31.2
2022-08-23T11:16:11.476Z,31
2022-08-23T11:17:24.802Z,29.9
2022-08-23T11:18:39.089Z,28.5
2022-08-23T11:19:52.384Z,27.2
2022-08-23T11:21:06.628Z,27.3
2022-08-23T11:22:20.917Z,28.4
2022-08-23T11:23:35.162Z,27.3
2022-08-23T11:24:49.391Z,27.6
2022-08-23T11:26:03.619Z,28.4
2022-08-23T11:27:17.850Z,29.8
2022-08-23T11:28:32.156Z,31.1
2022-08-23T11:29:46.400Z,31.3
2022-08-23T11:31:00.645Z,31.3
2022-08-23T11:32:14.860Z,30.4
2022-08-23T11:33:29.109Z,29.8
2022-08-23T11:34:43.395Z,29.8
2022-08-23T11:35:57.642Z,28.9
2022-08-23T11:37:11.887Z,27.6
2022-08-23T11:38:26.114Z,28.6
2022-08-23T11:39:40.344Z,29.5
2022-08-23T11:40:54.653Z,28.5
2022-08-23T11:42:08.887Z,27.1
2022-08-23T11:43:23.116Z,26.3
2022-08-23T11:44:37.347Z,26
2022-08-23T11:45:51.588Z,25.6
2022-08-23T11:47:05.875Z,25.6
2022-08-23T11:48:20.129Z,26.7
2022-08-23T11:49:34.366Z,28.7
2022-08-23T11:50:48.651Z,30
2022-08-23T11:52:01.987Z,30.3
2022-08-23T11:53:16.267Z,29.5
2022-08-23T11:55:43.811Z,29.6
2022-08-23T11:56:58.105Z,28.5
2022-08-23T11:58:12.344Z,28
2022-08-23T11:59:26.573Z,29.5
2022-08-23T12:00:40.803Z,30.5
2022-08-23T12:01:55.030Z,29.3
2022-08-23T12:03:09.353Z,28.3
2022-08-23T12:04:23.591Z,27.8
2022-08-23T12:05:37.818Z,26.8
2022-08-23T12:06:52.045Z,27.3
2022-08-23T12:08:06.282Z,28.4
2022-08-23T12:09:20.578Z,29
2022-08-23T12:10:34.838Z,30.5
2022-08-23T12:11:49.051Z,31
2022-08-23T12:13:03.296Z,31.6
2022-08-23T12:14:17.524Z,31.7
2022-08-23T12:15:31.823Z,31.2
2022-08-23T12:16:46.060Z,31.5
2022-08-23T12:18:00.297Z,32.2
2022-08-23T12:19:14.532Z,32.2
2022-08-23T12:20:28.755Z,32.5
2022-08-23T12:21:43.065Z,33.6
2022-08-23T12:22:57.313Z,33.6
2022-08-23T12:24:11.537Z,32.8
2022-08-23T12:25:25.831Z,32.5
2022-08-23T12:26:39.137Z,32.5
2022-08-23T12:27:53.372Z,31.5
2022-08-23T12:29:07.596Z,31.7
2022-08-23T12:30:21.837Z,31.9
2022-08-23T12:31:36.071Z,32.2
2022-08-23T12:32:50.363Z,32.2
2022-08-23T12:34:04.621Z,32.6
2022-08-23T12:35:18.000Z,31.5
2022-08-23T12:36:33.074Z,31.5
2022-08-23T12:37:47.000Z,32.6
2022-08-23T12:39:01.603Z,32.5
2022-08-23T12:40:15.861Z,32.6
2022-08-23T12:41:30.080Z,33.4
2022-08-23T12:42:44.308Z,33.8
2022-08-23T12:43:58.538Z,33.7
2022-08-23T12:45:12.851Z,32.2
2022-08-23T12:46:27.107Z,31.5
2022-08-23T12:47:41.326Z,30.7
2022-08-23T12:48:55.559Z,30.2
2022-08-23T12:50:09.799Z,29.2
2022-08-23T12:51:24.090Z,28
2022-08-23T12:52:38.345Z,27.3
2022-08-23T12:53:52.574Z,26.7
2022-08-23T12:55:06.795Z,26.4
2022-08-23T12:56:21.036Z,26.7
2022-08-23T12:57:35.386Z,29
2022-08-23T12:58:49.679Z,30.5
2022-08-23T13:00:02.987Z,31.2
2022-08-23T13:01:16.239Z,32.2
2022-08-23T13:02:30.472Z,31.5
2022-08-23T13:03:44.713Z,32.4
2022-08-23T13:04:58.935Z,33.1
2022-08-23T13:06:13.173Z,32.9
2022-08-23T13:07:27.463Z,32.3
2022-08-23T13:08:41.715Z,32.1
2022-08-23T13:09:55.952Z,33.1
2022-08-23T13:11:10.189Z,32.7
2022-08-23T13:12:24.413Z,32.1
2022-08-23T13:13:38.724Z,32.2
2022-08-23T13:14:52.958Z,32.9
2022-08-23T13:16:07.195Z,32.5
2022-08-23T13:17:21.422Z,32.8
2022-08-23T13:18:35.642Z,32.7
2022-08-23T13:19:49.959Z,32.6
2022-08-23T13:21:04.209Z,33
2022-08-23T13:22:18.430Z,33.7
2022-08-23T13:23:32.663Z,34.3
2022-08-23T13:24:46.897Z,34
2022-08-23T13:26:01.191Z,34.6
2022-08-23T13:27:15.443Z,34.9
2022-08-23T13:28:29.676Z,33.4
2022-08-23T13:29:43.913Z,32.3
2022-08-23T13:30:58.140Z,31.9
2022-08-23T13:32:12.446Z,31.4
2022-08-23T13:33:26.689Z,31
2022-08-23T13:34:40.919Z,28.7
2022-08-23T13:35:55.153Z,28.7
2022-08-23T13:37:09.380Z,29.1
2022-08-23T13:38:23.685Z,29.3
2022-08-23T13:39:37.923Z,29.1
2022-08-23T13:40:52.158Z,30
2022-08-23T13:42:06.398Z,30.2
2022-08-23T13:43:20.613Z,31.6
2022-08-23T13:44:34.931Z,32.5
2022-08-23T13:45:49.172Z,32.5
2022-08-23T13:47:03.464Z,32.6
2022-08-23T13:48:16.784Z,32.1
2022-08-23T13:49:31.086Z,31.8
2022-08-23T13:50:45.380Z,31.7
2022-08-23T13:51:58.680Z,32.1
2022-08-23T13:53:12.909Z,31.9
2022-08-23T13:54:27.223Z,32.9
2022-08-23T13:55:41.471Z,32.4
2022-08-23T13:56:55.695Z,31.1
2022-08-23T13:58:09.918Z,29.8
2022-08-23T13:59:24.163Z,27.5
2022-08-23T14:00:38.465Z,26.5
2022-08-23T14:01:52.713Z,26.2
2022-08-23T14:03:06.942Z,26
2022-08-23T14:04:21.157Z,25.9
2022-08-23T14:05:35.385Z,27
2022-08-23T14:06:49.700Z,29.4
2022-08-23T14:08:03.941Z,31.1
2022-08-23T14:09:18.171Z,32.3
2022-08-23T14:10:32.409Z,33.3
2022-08-23T14:11:46.637Z,34.2
2022-08-23T14:13:00.939Z,34.6
2022-08-23T14:14:15.191Z,34.8
2022-08-23T14:15:29.412Z,34.7
2022-08-23T14:16:43.638Z,35
2022-08-23T14:17:57.867Z,34.3
2022-08-23T14:19:12.185Z,32.4
2022-08-23T14:20:26.426Z,31
2022-08-23T14:21:40.663Z,30.1
2022-08-23T14:22:54.955Z,29.5
2022-08-23T14:24:08.241Z,28.9
2022-08-23T14:25:22.502Z,28
2022-08-23T14:26:36.732Z,26.7
2022-08-23T14:27:50.963Z,26.3
2022-08-23T14:29:05.187Z,26.1
2022-08-23T14:30:19.490Z,25.9
2022-08-23T14:31:33.731Z,27
2022-08-23T14:32:47.961Z,28.6
2022-08-23T14:34:02.189Z,30.1
2022-08-23T14:35:16.418Z,31.2
2022-08-23T14:36:30.735Z,31.2
2022-08-23T14:37:44.968Z,31.3
2022-08-23T14:38:59.207Z,31.5
2022-08-23T14:40:13.432Z,30.9
2022-08-23T14:41:27.665Z,31.6
2022-08-23T14:42:41.977Z,32.3
2022-08-23T14:43:56.210Z,33.1
2022-08-23T14:45:10.445Z,33.3
2022-08-23T14:46:24.673Z,32.2
2022-08-23T14:47:38.903Z,32.2
2022-08-23T14:48:53.216Z,31.6
2022-08-23T14:50:07.454Z,32.1
2022-08-23T14:51:21.695Z,33.1
2022-08-23T14:52:35.926Z,33.1
2022-08-23T14:53:50.149Z,33.3
2022-08-23T14:55:04.520Z,33.1
2022-08-23T14:56:18.797Z,32.9
2022-08-23T14:57:32.092Z,32.2
2022-08-23T14:58:46.322Z,33.1
2022-08-23T15:00:00.629Z,33.7
2022-08-23T15:01:14.871Z,33.6
2022-08-23T15:02:29.107Z,33.2
2022-08-23T15:03:43.345Z,33.6
2022-08-23T15:04:57.581Z,33.3
2022-08-23T15:06:11.866Z,32.7
2022-08-23T15:07:26.124Z,32.6
2022-08-23T15:08:40.359Z,32.9
2022-08-23T15:09:54.586Z,32.6
2022-08-23T15:11:08.820Z,32
2022-08-23T15:12:23.111Z,32.1
2022-08-23T15:13:37.375Z,32.3
2022-08-23T15:14:51.603Z,31.8
2022-08-23T15:16:05.834Z,30.6
2022-08-23T15:17:20.066Z,29.3
2022-08-23T15:18:34.371Z,28.8
2022-08-23T15:19:48.612Z,28.5
2022-08-23T15:21:02.844Z,28.7
2022-08-23T15:22:17.061Z,29.9
2022-08-23T15:23:31.310Z,31.5
2022-08-23T15:24:45.600Z,31.9
2022-08-23T15:25:59.860Z,32.5
2022-08-23T15:27:14.086Z,32.2
2022-08-23T15:28:28.368Z,31.9
2022-08-23T15:29:41.716Z,31.9
2022-08-23T15:30:56.004Z,31.1
2022-08-23T15:32:09.304Z,31.6
2022-08-23T15:33:23.534Z,32.2
2022-08-23T15:34:37.834Z,32.7
2022-08-23T15:35:52.070Z,32.5
2022-08-23T15:37:06.317Z,32.2
2022-08-23T15:38:20.545Z,32.1
2022-08-23T15:39:34.776Z,31.7
2022-08-23T15:40:49.070Z,31.3
2022-08-23T15:42:03.323Z,30.2
2022-08-23T15:43:17.554Z,31
2022-08-23T15:44:31.788Z,30.6
2022-08-23T15:45:46.003Z,30.9
2022-08-23T15:47:00.321Z,31.3
2022-08-23T15:48:14.562Z,31.8
2022-08-23T15:49:28.806Z,31.7
2022-08-23T15:50:43.017Z,31.1
2022-08-23T15:51:57.258Z,29.9
2022-08-23T15:53:11.562Z,28.4
2022-08-23T15:54:25.813Z,27.2
2022-08-23T15:55:40.036Z,26.4
2022-08-23T15:56:54.268Z,26
2022-08-23T15:58:08.499Z,25.8
2022-08-23T15:59:22.791Z,25.6
2022-08-23T16:00:37.036Z,25.3
2022-08-23T16:01:51.267Z,25.3
2022-08-23T16:03:05.559Z,25.3
2022-08-23T16:04:18.910Z,25.1
2022-08-23T16:05:33.184Z,25
2022-08-23T16:06:46.493Z,24.9
2022-08-23T16:08:00.713Z,24.9
2022-08-23T16:09:15.026Z,24.8
2022-08-23T16:10:29.269Z,24.8
2022-08-23T16:11:43.492Z,24.7
2022-08-23T16:12:57.722Z,24.7
2022-08-23T16:14:11.949Z,24.7
2022-08-23T16:15:26.257Z,24.6
2022-08-23T16:16:40.507Z,24.6
2022-08-23T16:17:54.745Z,24.6
2022-08-23T16:19:08.966Z,24.6
2022-08-23T16:20:23.200Z,24.5
2022-08-23T16:21:37.501Z,25.8
2022-08-23T16:22:51.745Z,27.4
2022-08-23T16:24:05.983Z,28.3
2022-08-23T16:25:20.212Z,29
2022-08-23T16:26:34.447Z,29.3
2022-08-23T16:27:48.743Z,29.5
2022-08-23T16:29:02.988Z,29.7
2022-08-23T16:30:17.213Z,30.2
2022-08-23T16:31:31.459Z,30.7
2022-08-23T16:32:45.682Z,30.7
2022-08-23T16:33:59.992Z,30.9
2022-08-23T16:35:14.231Z,31.3
2022-08-23T16:36:28.469Z,31.6
2022-08-23T16:37:42.750Z,30.9
2022-08-23T16:38:56.041Z,29.8
2022-08-23T16:40:10.302Z,29.1